createdAt,value
2019-01-03T00:00:24.919Z,-1.80
2019-01-03T00:03:11.824Z,-1.80
2019-01-03T00:06:00.186Z,-1.90
2019-01-03T00:09:00.734Z,-1.90
2019-01-03T00:12:01.010Z,-1.90
2019-01-03T00:14:48.031Z,-1.90
2019-01-03T00:17:39.152Z,-1.90
2019-01-03T00:20:26.115Z,-1.90
2019-01-03T00:23:27.343Z,-2.00
2019-01-03T00:26:14.208Z,-2.00
2019-01-03T00:29:05.359Z,-1.90
2019-01-03T00:31:56.497Z,-2.00
2019-01-03T00:34:47.985Z,-2.10
2019-01-03T00:37:51.274Z,-2.20
2019-01-03T00:40:30.925Z,-2.10
2019-01-03T00:43:31.217Z,-2.10
2019-01-03T00:46:31.713Z,-2.10
2019-01-03T00:49:32.215Z,-2.20
2019-01-03T00:52:23.607Z,-2.20
2019-01-03T00:55:27.215Z,-2.10
2019-01-03T00:58:15.585Z,-2.20
2019-01-03T01:01:02.330Z,-2.20
2019-01-03T01:04:08.835Z,-2.20
2019-01-03T01:07:02.287Z,-2.30
2019-01-03T01:09:59.828Z,-2.30
2019-01-03T01:12:46.577Z,-2.30
2019-01-03T01:15:53.143Z,-2.30
2019-01-03T01:18:47.401Z,-2.30
2019-01-03T01:21:34.527Z,-2.30
2019-01-03T01:24:18.821Z,-2.30
2019-01-03T01:27:00.630Z,-2.30
2019-01-03T01:29:50.221Z,-2.40
2019-01-03T01:32:47.558Z,-2.40
2019-01-03T01:35:34.601Z,-2.40
2019-01-03T01:38:21.609Z,-2.40
2019-01-03T01:41:08.980Z,-2.50
2019-01-03T01:44:06.310Z,-2.40
2019-01-03T01:46:57.479Z,-2.50
2019-01-03T01:49:44.285Z,-2.50
2019-01-03T01:52:35.401Z,-2.50
2019-01-03T01:55:24.311Z,-2.40
2019-01-03T01:58:22.606Z,-2.50
2019-01-03T02:01:16.896Z,-2.50
2019-01-03T02:04:08.299Z,-2.50
2019-01-03T02:07:08.752Z,-2.40
2019-01-03T02:10:09.065Z,-2.50
2019-01-03T02:12:57.426Z,-2.40
2019-01-03T02:15:40.195Z,-2.40
2019-01-03T02:18:43.694Z,-2.40
2019-01-03T02:21:37.960Z,-2.40
2019-01-03T02:24:41.499Z,-2.50
2019-01-03T02:27:32.595Z,-2.50
2019-01-03T02:30:32.526Z,-2.60
2019-01-03T02:33:23.711Z,-2.70
2019-01-03T02:36:12.088Z,-2.60
2019-01-03T02:38:58.836Z,-2.60
2019-01-03T02:42:05.204Z,-2.60
2019-01-03T02:44:51.975Z,-2.80
2019-01-03T02:47:48.983Z,-2.80
2019-01-03T02:50:37.348Z,-2.80
2019-01-03T02:53:24.075Z,-2.80
2019-01-03T02:56:10.832Z,-2.80
2019-01-03T02:59:08.108Z,-2.80
2019-01-03T03:02:11.670Z,-2.80
2019-01-03T03:04:58.735Z,-2.70
2019-01-03T03:07:47.334Z,-2.80
2019-01-03T03:10:44.526Z,-2.70
2019-01-03T03:13:38.793Z,-2.80
2019-01-03T03:16:27.162Z,-2.80
2019-01-03T03:19:21.686Z,-2.80
2019-01-03T03:22:14.663Z,-2.90
2019-01-03T03:25:03.329Z,-2.90
2019-01-03T03:27:54.741Z,-2.90
2019-01-03T03:30:41.509Z,-2.90
2019-01-03T03:33:42.048Z,-3.00
2019-01-03T03:36:45.519Z,-3.00
2019-01-03T03:39:32.209Z,-3.00
2019-01-03T03:42:18.908Z,-3.00
2019-01-03T03:45:08.386Z,-3.10
2019-01-03T03:47:55.378Z,-3.10
2019-01-03T03:50:34.939Z,-3.10
2019-01-03T03:53:19.442Z,-3.20
2019-01-03T03:56:07.807Z,-3.10
2019-01-03T03:58:54.681Z,-3.20
2019-01-03T04:01:43.039Z,-3.10
2019-01-03T04:04:34.156Z,-3.10
2019-01-03T04:07:25.553Z,-3.20
2019-01-03T04:10:08.587Z,-3.10
2019-01-03T04:13:09.754Z,-3.20
2019-01-03T04:16:06.182Z,-3.20
2019-01-03T04:18:52.880Z,-3.10
2019-01-03T04:21:39.992Z,-3.10
2019-01-03T04:24:27.003Z,-3.10
2019-01-03T04:27:30.533Z,-3.10
2019-01-03T04:30:24.504Z,-3.00
2019-01-03T04:33:09.692Z,-3.00
2019-01-03T04:35:56.451Z,-3.00
2019-01-03T04:38:45.935Z,-3.00
2019-01-03T04:41:49.572Z,-2.90
2019-01-03T04:44:43.980Z,-2.90
2019-01-03T04:47:32.355Z,-2.90
2019-01-03T04:50:35.850Z,-2.80
2019-01-03T04:53:27.233Z,-2.90
2019-01-03T04:56:27.706Z,-2.90
2019-01-03T04:59:34.203Z,-2.90
2019-01-03T05:02:22.828Z,-2.90
2019-01-03T05:05:14.213Z,-3.00
2019-01-03T05:08:02.589Z,-2.90
2019-01-03T05:10:51.213Z,-2.90
2019-01-03T05:13:37.992Z,-2.80
2019-01-03T05:16:29.528Z,-2.80
2019-01-03T05:19:17.896Z,-2.80
2019-01-03T05:22:09.569Z,-2.80
2019-01-03T05:24:56.583Z,-2.70
2019-01-03T05:27:49.917Z,-2.70
2019-01-03T05:30:36.717Z,-2.70
2019-01-03T05:33:30.987Z,-2.70
2019-01-03T05:36:19.364Z,-2.70
2019-01-03T05:39:10.448Z,-2.70
2019-01-03T05:41:58.827Z,-2.60
2019-01-03T05:44:46.091Z,-2.60
2019-01-03T05:47:34.093Z,-2.60
2019-01-03T05:50:21.405Z,-2.70
2019-01-03T05:53:12.812Z,-2.70
2019-01-03T05:55:59.819Z,-2.70
2019-01-03T05:59:03.400Z,-2.60
2019-01-03T06:01:57.798Z,-2.60
2019-01-03T06:04:46.735Z,-2.60
2019-01-03T06:07:33.766Z,-2.60
2019-01-03T06:10:15.475Z,-2.60
2019-01-03T06:12:59.519Z,-2.50
2019-01-03T06:15:53.743Z,-2.50
2019-01-03T06:18:40.863Z,-2.50
2019-01-03T06:21:42.151Z,-2.50
2019-01-03T06:24:45.698Z,-2.40
2019-01-03T06:27:32.620Z,-2.40
2019-01-03T06:30:38.902Z,-2.40
2019-01-03T06:33:30.013Z,-2.40
2019-01-03T06:36:21.149Z,-2.40
2019-01-03T06:39:09.518Z,-2.40
2019-01-03T06:42:00.895Z,-2.30
2019-01-03T06:44:49.243Z,-2.30
2019-01-03T06:47:43.748Z,-2.20
2019-01-03T06:50:50.297Z,-2.20
2019-01-03T06:53:52.537Z,-2.20
2019-01-03T06:56:43.924Z,-2.20
2019-01-03T06:59:30.956Z,-2.30
2019-01-03T07:02:25.072Z,-2.20
2019-01-03T07:05:21.619Z,-2.20
2019-01-03T07:08:10.257Z,-2.20
2019-01-03T07:10:55.945Z,-2.20
2019-01-03T07:13:53.368Z,-2.10
2019-01-03T07:16:56.619Z,-2.10
2019-01-03T07:19:44.967Z,-2.10
2019-01-03T07:22:48.176Z,-2.20
2019-01-03T07:25:51.757Z,-2.10
2019-01-03T07:28:48.994Z,-2.20
2019-01-03T07:31:46.271Z,-2.20
2019-01-03T07:34:46.439Z,-2.10
2019-01-03T07:37:35.889Z,-2.10
2019-01-03T07:40:23.065Z,-2.10
2019-01-03T07:43:23.494Z,-2.00
2019-01-03T07:46:10.404Z,-2.00
2019-01-03T07:49:01.553Z,-2.10
2019-01-03T07:51:48.282Z,-2.10
2019-01-03T07:54:43.266Z,-2.00
2019-01-03T07:57:37.401Z,-2.00
2019-01-03T08:00:35.078Z,-1.90
2019-01-03T08:03:35.015Z,-1.90
2019-01-03T08:06:26.406Z,-1.90
2019-01-03T08:09:17.535Z,-1.90
2019-01-03T08:12:16.887Z,-1.90
2019-01-03T08:15:17.144Z,-1.80
2019-01-03T08:18:03.904Z,-1.80
2019-01-03T08:20:51.018Z,-1.70
2019-01-03T08:23:54.617Z,-1.80
2019-01-03T08:26:37.174Z,-1.80
2019-01-03T08:29:31.411Z,-1.70
2019-01-03T08:32:22.846Z,-1.70
2019-01-03T08:35:11.230Z,-1.70
2019-01-03T08:37:58.020Z,-1.70
2019-01-03T08:40:55.438Z,-1.70
2019-01-03T08:43:42.371Z,-1.70
2019-01-03T08:46:27.813Z,-1.70
2019-01-03T08:49:14.942Z,-1.60
2019-01-03T08:52:03.225Z,-1.70
2019-01-03T08:55:03.551Z,-1.70
2019-01-03T08:57:55.417Z,-1.70
2019-01-03T09:00:39.015Z,-1.70
2019-01-03T09:03:35.382Z,-1.70
2019-01-03T09:06:22.419Z,-1.80
2019-01-03T09:09:06.797Z,-1.70
2019-01-03T09:11:58.066Z,-1.70
2019-01-03T09:14:45.110Z,-1.70
2019-01-03T09:17:39.382Z,-1.60
2019-01-03T09:20:35.893Z,-1.60
2019-01-03T09:23:22.696Z,-1.60
2019-01-03T09:26:10.178Z,-1.60
2019-01-03T09:29:13.455Z,-1.60
2019-01-03T09:32:00.466Z,-1.50
2019-01-03T09:34:48.819Z,-1.50
2019-01-03T09:37:33.392Z,-1.50
2019-01-03T09:40:27.795Z,-1.40
2019-01-03T09:43:19.193Z,-1.50
2019-01-03T09:45:48.744Z,-1.40
2019-01-03T09:48:18.169Z,-1.30
2019-01-03T09:50:47.599Z,-1.20
2019-01-03T09:53:17.031Z,-1.30
2019-01-03T09:55:46.466Z,-1.20
2019-01-03T09:58:15.899Z,-1.10
2019-01-03T10:00:45.615Z,-1.20
2019-01-03T10:03:15.074Z,-1.10
2019-01-03T10:05:44.501Z,-1.20
2019-01-03T10:08:19.492Z,-1.10
2019-01-03T10:10:45.278Z,-1.20
2019-01-03T10:13:14.727Z,-1.10
2019-01-03T10:15:44.501Z,-1.10
2019-01-03T10:18:13.968Z,-1.10
2019-01-03T10:20:43.673Z,-1.00
2019-01-03T10:23:13.096Z,-1.00
2019-01-03T10:25:42.903Z,-1.00
2019-01-03T10:28:12.316Z,-0.90
2019-01-03T10:30:42.030Z,-0.80
2019-01-03T10:33:11.477Z,-0.70
2019-01-03T10:35:40.897Z,-0.80
2019-01-03T10:38:10.321Z,-0.80
2019-01-03T10:40:42.660Z,-0.90
2019-01-03T10:43:12.095Z,-0.90
2019-01-03T10:45:41.499Z,-0.90
2019-01-03T10:48:11.180Z,-0.90
2019-01-03T10:50:40.622Z,-0.90
2019-01-03T10:53:10.521Z,-0.80
2019-01-03T10:55:40.239Z,-0.70
2019-01-03T10:58:09.952Z,-0.70
2019-01-03T11:00:39.389Z,-0.70
2019-01-03T11:03:08.809Z,-0.60
2019-01-03T11:05:38.330Z,-0.60
2019-01-03T11:08:08.043Z,-0.60
2019-01-03T11:10:37.549Z,-0.60
2019-01-03T11:13:07.238Z,-0.70
2019-01-03T11:15:37.073Z,-0.70
2019-01-03T11:18:06.510Z,-0.80
2019-01-03T11:20:35.956Z,-0.90
2019-01-03T11:23:05.798Z,-0.90
2019-01-03T11:25:35.671Z,-0.90
2019-01-03T11:28:05.156Z,-1.00
2019-01-03T11:30:34.589Z,-1.00
2019-01-03T11:33:04.040Z,-1.10
2019-01-03T11:35:33.497Z,-1.40
2019-01-03T11:38:04.224Z,-1.50
2019-01-03T11:40:33.656Z,-1.60
2019-01-03T11:43:03.212Z,-1.70
2019-01-03T11:45:32.775Z,-1.70
2019-01-03T11:48:02.173Z,-1.90
2019-01-03T11:50:31.605Z,-1.90
2019-01-03T11:53:01.327Z,-1.90
2019-01-03T11:55:30.744Z,-1.80
2019-01-03T11:58:00.160Z,-1.80
2019-01-03T12:00:29.611Z,-1.70
2019-01-03T12:02:59.373Z,-1.50
2019-01-03T12:05:28.783Z,-1.30
2019-01-03T12:07:58.243Z,-1.30
2019-01-03T12:10:27.669Z,-1.20
2019-01-03T12:12:57.429Z,-1.10
2019-01-03T12:15:26.843Z,-1.00
2019-01-03T12:17:56.298Z,-1.10
2019-01-03T12:20:25.760Z,-1.10
2019-01-03T12:22:55.763Z,-1.00
2019-01-03T12:25:25.188Z,-0.90
2019-01-03T12:27:54.611Z,-0.90
2019-01-03T12:30:24.289Z,-1.00
2019-01-03T12:32:54.019Z,-1.10
2019-01-03T12:35:23.444Z,-1.20
2019-01-03T12:37:53.198Z,-1.30
2019-01-03T12:40:22.621Z,-1.30
2019-01-03T12:42:52.046Z,-1.30
2019-01-03T12:45:21.466Z,-1.30
2019-01-03T12:47:51.224Z,-1.30
2019-01-03T12:50:20.921Z,-1.30
2019-01-03T12:52:50.649Z,-1.30
2019-01-03T12:55:20.051Z,-1.20
2019-01-03T12:57:49.459Z,-1.20
2019-01-03T13:00:19.151Z,-1.10
2019-01-03T13:02:48.882Z,-1.00
2019-01-03T13:05:18.595Z,-1.00
2019-01-03T13:07:48.021Z,-1.00
2019-01-03T13:10:17.423Z,-0.90
2019-01-03T13:12:46.927Z,-0.90
2019-01-03T13:15:16.333Z,-0.80
2019-01-03T13:17:45.765Z,-0.80
2019-01-03T13:20:15.272Z,-0.70
2019-01-03T13:22:44.683Z,-0.60
2019-01-03T13:25:14.139Z,-0.60
2019-01-03T13:27:43.565Z,-0.60
2019-01-03T13:30:13.027Z,-0.60
2019-01-03T13:32:42.446Z,-0.60
2019-01-03T13:35:11.860Z,-0.60
2019-01-03T13:37:41.285Z,-0.70
2019-01-03T13:40:10.730Z,-0.70
2019-01-03T13:42:40.238Z,-0.70
2019-01-03T13:45:09.935Z,-0.80
2019-01-03T13:47:39.339Z,-0.80
2019-01-03T13:50:09.209Z,-0.80
2019-01-03T13:52:38.634Z,-0.70
2019-01-03T13:55:08.055Z,-0.70
2019-01-03T13:57:38.112Z,-0.80
2019-01-03T14:00:09.646Z,-0.80
2019-01-03T14:02:39.598Z,-0.80
2019-01-03T14:05:09.076Z,-0.80
2019-01-03T14:07:38.582Z,-0.70
2019-01-03T14:10:08.187Z,-0.70
2019-01-03T14:12:37.587Z,-0.70
2019-01-03T14:15:07.458Z,-0.70
2019-01-03T14:17:37.214Z,-0.70
2019-01-03T14:20:09.067Z,-0.70
2019-01-03T14:22:38.481Z,-0.70
2019-01-03T14:25:08.334Z,-0.80
2019-01-03T14:27:38.128Z,-0.70
2019-01-03T14:30:09.053Z,-0.70
2019-01-03T14:32:38.438Z,-0.70
2019-01-03T14:35:07.885Z,-0.70
2019-01-03T14:37:37.443Z,-0.70
2019-01-03T14:40:07.843Z,-0.70
2019-01-03T14:42:37.259Z,-0.90
2019-01-03T14:45:06.987Z,-1.00
2019-01-03T14:47:38.698Z,-1.10
2019-01-03T14:50:10.441Z,-1.00
2019-01-03T14:52:40.298Z,-1.10
2019-01-03T14:55:10.364Z,-1.20
2019-01-03T14:57:40.144Z,-1.20
2019-01-03T15:00:12.522Z,-1.20
2019-01-03T15:02:42.245Z,-1.20
2019-01-03T15:05:14.020Z,-1.20
2019-01-03T15:07:43.351Z,-1.20
2019-01-03T15:10:12.951Z,-1.20
2019-01-03T15:12:42.421Z,-1.20
2019-01-03T15:15:13.121Z,-1.30
2019-01-03T15:17:42.499Z,-1.30
2019-01-03T15:20:12.567Z,-1.20
2019-01-03T15:22:42.129Z,-1.30
2019-01-03T15:25:11.566Z,-1.30
2019-01-03T15:27:40.999Z,-1.30
2019-01-03T15:30:11.487Z,-1.40
2019-01-03T15:32:40.931Z,-1.40
2019-01-03T15:35:10.408Z,-1.50
2019-01-03T15:37:39.907Z,-1.40
2019-01-03T15:40:09.653Z,-1.40
2019-01-03T15:42:39.383Z,-1.40
2019-01-03T15:45:09.548Z,-1.40
2019-01-03T15:47:39.279Z,-1.40
2019-01-03T15:50:09.086Z,-1.40
2019-01-03T15:52:38.814Z,-1.40
2019-01-03T15:55:08.425Z,-1.40
2019-01-03T15:57:37.984Z,-1.40
2019-01-03T16:00:09.470Z,-1.50
2019-01-03T16:02:39.090Z,-1.40
2019-01-03T16:05:09.528Z,-1.40
2019-01-03T16:07:39.598Z,-1.40
2019-01-03T16:10:09.777Z,-1.30
2019-01-03T16:12:39.307Z,-1.40
2019-01-03T16:15:09.063Z,-1.40
2019-01-03T16:17:39.523Z,-1.50
2019-01-03T16:20:09.284Z,-1.50
2019-01-03T16:22:38.802Z,-1.50
2019-01-03T16:25:08.302Z,-1.60
2019-01-03T16:27:37.736Z,-1.70
2019-01-03T16:30:08.718Z,-1.80
2019-01-03T16:32:38.339Z,-1.80
2019-01-03T16:35:07.870Z,-1.80
2019-01-03T16:37:37.326Z,-1.80
2019-01-03T16:40:07.957Z,-1.80
2019-01-03T16:42:42.293Z,-1.80
2019-01-03T16:45:12.447Z,-1.80
2019-01-03T16:47:42.239Z,-1.80
2019-01-03T16:50:16.479Z,-1.80
2019-01-03T16:52:46.382Z,-1.90
2019-01-03T16:55:15.879Z,-1.90
2019-01-03T16:57:45.383Z,-1.80
2019-01-03T17:00:14.919Z,-1.80
2019-01-03T17:02:44.456Z,-1.80
2019-01-03T17:05:14.092Z,-1.80
2019-01-03T17:07:44.156Z,-1.90
2019-01-03T17:10:16.117Z,-1.90
2019-01-03T17:12:45.554Z,-1.90
2019-01-03T17:15:15.019Z,-1.90
2019-01-03T17:17:44.575Z,-1.90
2019-01-03T17:20:14.022Z,-2.00
2019-01-03T17:22:43.956Z,-2.10
2019-01-03T17:25:14.629Z,-2.10
2019-01-03T17:27:44.083Z,-2.10
2019-01-03T17:30:13.617Z,-2.10
2019-01-03T17:32:43.083Z,-2.10
2019-01-03T17:35:13.082Z,-2.10
2019-01-03T17:37:42.552Z,-2.10
2019-01-03T17:40:13.619Z,-2.00
2019-01-03T17:42:45.551Z,-2.00
2019-01-03T17:45:15.040Z,-1.90
2019-01-03T17:47:44.759Z,-1.90
2019-01-03T17:50:16.206Z,-1.90
2019-01-03T17:52:45.651Z,-1.90
2019-01-03T17:55:15.103Z,-1.80
2019-01-03T17:57:44.563Z,-1.80
2019-01-03T18:00:16.881Z,-1.70
2019-01-03T18:02:46.341Z,-1.80
2019-01-03T18:05:15.859Z,-1.70
2019-01-03T18:07:45.639Z,-1.70
2019-01-03T18:10:15.337Z,-1.70
2019-01-03T18:12:45.069Z,-1.70
2019-01-03T18:15:14.619Z,-1.70
2019-01-03T18:17:44.159Z,-1.70
2019-01-03T18:20:15.795Z,-1.70
2019-01-03T18:22:45.260Z,-1.70
2019-01-03T18:25:14.754Z,-1.70
2019-01-03T18:27:44.328Z,-1.80
2019-01-03T18:30:14.239Z,-1.80
2019-01-03T18:32:43.789Z,-1.70
2019-01-03T18:35:13.325Z,-1.70
2019-01-03T18:37:43.206Z,-1.70
2019-01-03T18:40:14.971Z,-1.70
2019-01-03T18:42:47.183Z,-1.70
2019-01-03T18:45:22.292Z,-1.70
2019-01-03T18:47:51.738Z,-1.70
2019-01-03T18:50:21.230Z,-1.70
2019-01-03T18:52:50.774Z,-1.80
2019-01-03T18:55:20.507Z,-1.70
2019-01-03T18:57:49.946Z,-1.70
2019-01-03T19:00:19.392Z,-1.80
2019-01-03T19:02:48.819Z,-1.80
2019-01-03T19:05:18.247Z,-1.80
2019-01-03T19:07:47.814Z,-1.80
2019-01-03T19:10:17.927Z,-1.80
2019-01-03T19:12:47.701Z,-1.80
2019-01-03T19:15:17.154Z,-1.80
2019-01-03T19:17:46.672Z,-1.80
2019-01-03T19:20:16.162Z,-1.80
2019-01-03T19:22:45.688Z,-1.80
2019-01-03T19:25:17.117Z,-1.80
2019-01-03T19:27:46.943Z,-1.80
2019-01-03T19:30:16.470Z,-1.90
2019-01-03T19:32:45.894Z,-1.80
2019-01-03T19:35:15.313Z,-1.90
2019-01-03T19:37:50.848Z,-1.90
2019-01-03T19:40:20.854Z,-1.90
2019-01-03T19:42:50.926Z,-1.90
2019-01-03T19:45:20.637Z,-1.90
2019-01-03T19:47:50.936Z,-1.90
2019-01-03T19:50:21.003Z,-1.90
2019-01-03T19:52:50.743Z,-1.90
2019-01-03T19:55:20.194Z,-1.90
2019-01-03T19:57:49.637Z,-1.90
2019-01-03T20:00:19.104Z,-1.90
2019-01-03T20:02:48.661Z,-1.90
2019-01-03T20:05:18.708Z,-1.90
2019-01-03T20:07:48.951Z,-1.80
2019-01-03T20:10:18.805Z,-1.90
2019-01-03T20:12:48.289Z,-1.80
2019-01-03T20:15:18.025Z,-1.80
2019-01-03T20:17:47.487Z,-1.80
2019-01-03T20:20:17.277Z,-1.90
2019-01-03T20:22:47.293Z,-1.90
2019-01-03T20:25:16.869Z,-1.90
2019-01-03T20:27:46.346Z,-1.90
2019-01-03T20:30:15.841Z,-1.90
2019-01-03T20:32:45.278Z,-1.90
2019-01-03T20:35:14.837Z,-1.90
2019-01-03T20:37:44.642Z,-1.90
2019-01-03T20:40:16.474Z,-1.90
2019-01-03T20:42:46.259Z,-1.90
2019-01-03T20:45:15.741Z,-2.00
2019-01-03T20:47:45.575Z,-1.90
2019-01-03T20:50:15.473Z,-1.90
2019-01-03T20:52:44.910Z,-1.90
2019-01-03T20:55:14.976Z,-1.80
2019-01-03T20:57:44.517Z,-1.90
2019-01-03T21:00:15.337Z,-1.90
2019-01-03T21:02:44.841Z,-1.90
2019-01-03T21:05:14.387Z,-1.90
2019-01-03T21:07:45.599Z,-1.90
2019-01-03T21:10:17.912Z,-2.00
2019-01-03T21:12:49.433Z,-2.00
2019-01-03T21:15:19.979Z,-2.10
2019-01-03T21:17:49.518Z,-2.10
2019-01-03T21:20:19.405Z,-2.10
2019-01-03T21:22:48.867Z,-2.10
2019-01-03T21:25:18.436Z,-2.10
2019-01-03T21:27:48.020Z,-2.10
2019-01-03T21:30:19.400Z,-2.10
2019-01-03T21:32:48.913Z,-2.10
2019-01-03T21:35:18.358Z,-2.10
2019-01-03T21:37:47.959Z,-2.10
2019-01-03T21:40:17.389Z,-2.10
2019-01-03T21:42:46.879Z,-2.00
2019-01-03T21:45:16.563Z,-2.00
2019-01-03T21:47:47.181Z,-2.00
2019-01-03T21:50:16.661Z,-2.10
2019-01-03T21:52:46.476Z,-2.10
2019-01-03T21:55:16.283Z,-2.10
2019-01-03T21:57:45.773Z,-2.10
2019-01-03T22:00:15.343Z,-2.10
2019-01-03T22:02:44.882Z,-2.20
2019-01-03T22:05:14.365Z,-2.20
2019-01-03T22:07:43.790Z,-2.10
2019-01-03T22:10:13.598Z,-2.20
2019-01-03T22:12:43.103Z,-2.20
2019-01-03T22:15:12.578Z,-2.20
2019-01-03T22:17:42.135Z,-2.20
2019-01-03T22:20:11.810Z,-2.20
2019-01-03T22:22:41.319Z,-2.20
2019-01-03T22:25:11.030Z,-2.20
2019-01-03T22:27:40.447Z,-2.20
2019-01-03T22:30:11.359Z,-2.20
2019-01-03T22:32:40.869Z,-2.20
2019-01-03T22:35:10.338Z,-2.20
2019-01-03T22:37:40.041Z,-2.30
2019-01-03T22:40:09.792Z,-2.40
2019-01-03T22:42:39.297Z,-2.40
2019-01-03T22:45:11.297Z,-2.40
2019-01-03T22:47:40.835Z,-2.40
2019-01-03T22:50:11.034Z,-2.40
2019-01-03T22:52:40.466Z,-2.40
2019-01-03T22:55:10.020Z,-2.40
2019-01-03T22:57:39.481Z,-2.40
2019-01-03T23:00:44.187Z,-2.40
2019-01-03T23:03:13.643Z,-2.30
2019-01-03T23:05:43.057Z,-2.30
2019-01-03T23:08:12.471Z,-2.30
2019-01-03T23:10:41.902Z,-2.30
2019-01-03T23:13:11.335Z,-2.30
2019-01-03T23:15:40.733Z,-2.40
2019-01-03T23:18:10.155Z,-2.40
2019-01-03T23:20:39.577Z,-2.40
2019-01-03T23:23:09.018Z,-2.40
2019-01-03T23:25:38.422Z,-2.40
2019-01-03T23:28:07.849Z,-2.50
2019-01-03T23:30:37.290Z,-2.50
2019-01-03T23:33:06.709Z,-2.60
2019-01-03T23:35:36.111Z,-2.60
2019-01-03T23:38:05.542Z,-2.50
2019-01-03T23:40:34.967Z,-2.50
2019-01-03T23:43:04.394Z,-2.60
2019-01-03T23:45:34.207Z,-2.60
2019-01-03T23:48:03.627Z,-2.70
2019-01-03T23:50:34.416Z,-2.70
2019-01-03T23:53:03.832Z,-2.70
2019-01-03T23:55:48.346Z,-2.80
2019-01-03T23:58:18.062Z,-2.80
